Grantsville, West Virginia
Current Conditions -  °F | °C
As of 8:53 AM on Sunday 25 Jan 2015 (Local Time) from KPKB Reporting Station
Haze Haze  
Wind Chill: 28°   Ceiling: Unl
Heat Index: 33°   Visibility: 4mi
Dew Point: 31°   Wind: 6mph
Humidity: 92%   Direction: 170°S
Pressure: 29.82"   Gusts: NA
Location:  38.92°N, 81.1°W
Report Text: KPKB 251353Z 17005KT 4SM BR CLR 01/M01 A2982 RMK AO2 SLP103 T00061006
Loading
Personal Weather Stations






























Interactive Weather Map New forecast layout! Learn more

10-Day Weather Forecast

Advertisements
Track Severe Weather on mobile